sensor_id;sensor_type;location;lat;lon;timestamp;P1;durP1;ratioP1;P2;durP2;ratioP2
63218;SDS011;49320;52.512;13.448;2022-08-19T00:01:54;6.03;;;5.43;;
63218;SDS011;49320;52.512;13.448;2022-08-19T00:04:26;5.75;;;5.28;;
63218;SDS011;49320;52.512;13.448;2022-08-19T00:06:57;6.47;;;5.68;;
63218;SDS011;49320;52.512;13.448;2022-08-19T00:09:26;6.20;;;5.70;;
63218;SDS011;49320;52.512;13.448;2022-08-19T00:11:54;6.47;;;5.88;;
63218;SDS011;49320;52.512;13.448;2022-08-19T00:14:22;6.55;;;5.70;;
63218;SDS011;49320;52.512;13.448;2022-08-19T00:16:51;6.45;;;5.85;;
63218;SDS011;49320;52.512;13.448;2022-08-19T00:19:21;6.65;;;6.05;;
63218;SDS011;49320;52.512;13.448;2022-08-19T00:21:49;6.03;;;5.50;;
63218;SDS011;49320;52.512;13.448;2022-08-19T00:24:17;5.95;;;5.30;;
63218;SDS011;49320;52.512;13.448;2022-08-19T00:26:45;6.35;;;5.38;;
63218;SDS011;49320;52.512;13.448;2022-08-19T00:29:14;6.40;;;5.80;;
63218;SDS011;49320;52.512;13.448;2022-08-19T00:31:46;6.68;;;6.07;;
63218;SDS011;49320;52.512;13.448;2022-08-19T00:34:16;6.13;;;5.60;;
63218;SDS011;49320;52.512;13.448;2022-08-19T00:36:43;6.82;;;6.10;;
63218;SDS011;49320;52.512;13.448;2022-08-19T00:39:11;6.53;;;5.95;;
63218;SDS011;49320;52.512;13.448;2022-08-19T00:41:39;6.70;;;6.13;;
63218;SDS011;49320;52.512;13.448;2022-08-19T00:44:14;7.38;;;6.78;;
63218;SDS011;49320;52.512;13.448;2022-08-19T00:46:52;6.40;;;5.80;;
63218;SDS011;49320;52.512;13.448;2022-08-19T00:49:27;6.57;;;5.93;;
63218;SDS011;49320;52.512;13.448;2022-08-19T00:52:06;6.80;;;6.13;;
63218;SDS011;49320;52.512;13.448;2022-08-19T00:54:40;7.60;;;6.88;;
63218;SDS011;49320;52.512;13.448;2022-08-19T06:16:55;9.38;;;8.57;;
63218;SDS011;49320;52.512;13.448;2022-08-19T06:19:23;10.02;;;9.07;;
63218;SDS011;49320;52.512;13.448;2022-08-19T06:21:50;10.15;;;9.30;;
63218;SDS011;49320;52.512;13.448;2022-08-19T06:24:22;10.35;;;9.48;;
63218;SDS011;49320;52.512;13.448;2022-08-19T06:26:51;11.18;;;10.07;;
63218;SDS011;49320;52.512;13.448;2022-08-19T06:29:26;12.40;;;11.20;;
63218;SDS011;49320;52.512;13.448;2022-08-19T06:31:56;11.32;;;10.40;;
63218;SDS011;49320;52.512;13.448;2022-08-19T06:34:27;10.65;;;9.75;;
63218;SDS011;49320;52.512;13.448;2022-08-19T06:36:58;11.00;;;10.00;;
63218;SDS011;49320;52.512;13.448;2022-08-19T06:39:32;11.10;;;10.10;;
63218;SDS011;49320;52.512;13.448;2022-08-19T06:42:03;11.00;;;10.10;;
63218;SDS011;49320;52.512;13.448;2022-08-19T06:44:36;11.30;;;10.40;;
63218;SDS011;49320;52.512;13.448;2022-08-19T06:47:12;10.80;;;9.83;;
63218;SDS011;49320;52.512;13.448;2022-08-19T06:49:52;10.30;;;9.43;;
63218;SDS011;49320;52.512;13.448;2022-08-19T06:52:31;11.57;;;10.57;;
63218;SDS011;49320;52.512;13.448;2022-08-19T06:55:02;11.20;;;10.18;;
63218;SDS011;49320;52.512;13.448;2022-08-19T06:57:31;11.23;;;10.32;;
63218;SDS011;49320;52.512;13.448;2022-08-19T06:59:59;10.68;;;9.77;;
63218;SDS011;49320;52.512;13.448;2022-08-19T07:02:26;10.60;;;9.70;;
63218;SDS011;49320;52.512;13.448;2022-08-19T07:04:53;10.43;;;9.52;;
63218;SDS011;49320;52.512;13.448;2022-08-19T07:07:20;10.80;;;9.90;;
63218;SDS011;49320;52.512;13.448;2022-08-19T07:09:49;10.35;;;9.55;;
63218;SDS011;49320;52.512;13.448;2022-08-19T07:12:26;10.95;;;10.00;;
63218;SDS011;49320;52.512;13.448;2022-08-19T07:15:00;11.05;;;9.95;;
63218;SDS011;49320;52.512;13.448;2022-08-19T07:17:29;10.57;;;9.57;;
63218;SDS011;49320;52.512;13.448;2022-08-19T07:19:59;10.77;;;9.73;;
63218;SDS011;49320;52.512;13.448;2022-08-19T07:22:30;10.98;;;10.07;;
63218;SDS011;49320;52.512;13.448;2022-08-19T07:24:59;10.57;;;9.68;;
63218;SDS011;49320;52.512;13.448;2022-08-19T07:27:26;11.48;;;10.48;;
63218;SDS011;49320;52.512;13.448;2022-08-19T07:29:53;11.30;;;10.40;;
63218;SDS011;49320;52.512;13.448;2022-08-19T07:32:23;10.65;;;9.65;;
63218;SDS011;49320;52.512;13.448;2022-08-19T07:34:53;11.63;;;10.63;;
63218;SDS011;49320;52.512;13.448;2022-08-19T07:37:23;10.70;;;9.77;;
63218;SDS011;49320;52.512;13.448;2022-08-19T07:39:58;10.88;;;9.88;;
63218;SDS011;49320;52.512;13.448;2022-08-19T07:42:27;10.77;;;9.68;;
63218;SDS011;49320;52.512;13.448;2022-08-19T07:44:56;11.05;;;10.05;;
63218;SDS011;49320;52.512;13.448;2022-08-19T07:47:24;10.80;;;9.80;;
63218;SDS011;49320;52.512;13.448;2022-08-19T07:50:13;10.80;;;9.80;;
63218;SDS011;49320;52.512;13.448;2022-08-19T07:52:41;11.23;;;10.27;;
63218;SDS011;49320;52.512;13.448;2022-08-19T07:55:14;10.40;;;9.43;;
63218;SDS011;49320;52.512;13.448;2022-08-19T07:58:02;11.25;;;10.35;;
63218;SDS011;49320;52.512;13.448;2022-08-19T08:00:30;12.52;;;11.27;;
63218;SDS011;49320;52.512;13.448;2022-08-19T08:02:57;11.45;;;10.45;;
63218;SDS011;49320;52.512;13.448;2022-08-19T08:05:24;11.13;;;10.23;;
63218;SDS011;49320;52.512;13.448;2022-08-19T08:08:11;11.18;;;10.23;;
63218;SDS011;49320;52.512;13.448;2022-08-19T08:11:13;11.60;;;10.60;;
63218;SDS011;49320;52.512;13.448;2022-08-19T08:13:45;11.55;;;10.45;;
63218;SDS011;49320;52.512;13.448;2022-08-19T08:16:29;11.98;;;10.88;;
63218;SDS011;49320;52.512;13.448;2022-08-19T08:19:12;12.52;;;11.15;;
63218;SDS011;49320;52.512;13.448;2022-08-19T08:21:51;11.65;;;10.65;;
63218;SDS011;49320;52.512;13.448;2022-08-19T08:24:21;11.55;;;10.35;;
63218;SDS011;49320;52.512;13.448;2022-08-19T08:26:54;12.23;;;11.02;;
63218;SDS011;49320;52.512;13.448;2022-08-19T08:29:23;11.88;;;10.88;;
63218;SDS011;49320;52.512;13.448;2022-08-19T08:31:51;12.43;;;11.40;;
63218;SDS011;49320;52.512;13.448;2022-08-19T08:34:25;11.82;;;10.77;;
63218;SDS011;49320;52.512;13.448;2022-08-19T08:36:52;13.23;;;12.13;;
63218;SDS011;49320;52.512;13.448;2022-08-19T08:39:19;12.65;;;11.60;;
63218;SDS011;49320;52.512;13.448;2022-08-19T08:41:55;12.73;;;11.63;;
63218;SDS011;49320;52.512;13.448;2022-08-19T08:44:53;11.32;;;10.20;;
63218;SDS011;49320;52.512;13.448;2022-08-19T08:47:32;13.48;;;12.27;;
63218;SDS011;49320;52.512;13.448;2022-08-19T08:55:13;12.73;;;11.50;;
63218;SDS011;49320;52.512;13.448;2022-08-19T09:00:19;13.68;;;12.45;;
63218;SDS011;49320;52.512;13.448;2022-08-19T09:02:52;12.27;;;11.25;;
63218;SDS011;49320;52.512;13.448;2022-08-19T09:13:13;13.90;;;12.77;;
63218;SDS011;49320;52.512;13.448;2022-08-19T09:16:07;12.85;;;11.68;;
63218;SDS011;49320;52.512;13.448;2022-08-19T09:18:44;14.63;;;13.25;;
63218;SDS011;49320;52.512;13.448;2022-08-19T09:21:15;13.75;;;12.55;;
63218;SDS011;49320;52.512;13.448;2022-08-19T09:23:42;13.80;;;12.60;;
63218;SDS011;49320;52.512;13.448;2022-08-19T09:26:11;13.85;;;12.75;;
63218;SDS011;49320;52.512;13.448;2022-08-19T09:28:46;13.25;;;12.23;;
63218;SDS011;49320;52.512;13.448;2022-08-19T09:31:16;14.82;;;13.48;;
63218;SDS011;49320;52.512;13.448;2022-08-19T09:33:47;13.93;;;12.57;;
63218;SDS011;49320;52.512;13.448;2022-08-19T09:36:18;14.05;;;12.90;;
63218;SDS011;49320;52.512;13.448;2022-08-19T09:39:00;12.00;;;11.00;;
63218;SDS011;49320;52.512;13.448;2022-08-19T09:41:27;13.77;;;12.55;;
63218;SDS011;49320;52.512;13.448;2022-08-19T09:43:55;13.32;;;12.13;;
63218;SDS011;49320;52.512;13.448;2022-08-19T09:46:25;12.75;;;11.73;;
63218;SDS011;49320;52.512;13.448;2022-08-19T09:48:56;12.82;;;11.73;;
63218;SDS011;49320;52.512;13.448;2022-08-19T09:51:31;13.23;;;12.20;;
63218;SDS011;49320;52.512;13.448;2022-08-19T09:54:01;13.35;;;12.25;;
63218;SDS011;49320;52.512;13.448;2022-08-19T09:56:31;14.57;;;13.20;;
63218;SDS011;49320;52.512;13.448;2022-08-19T09:58:59;12.80;;;11.73;;
63218;SDS011;49320;52.512;13.448;2022-08-19T10:01:30;12.18;;;11.18;;
63218;SDS011;49320;52.512;13.448;2022-08-19T10:04:00;11.98;;;10.90;;
63218;SDS011;49320;52.512;13.448;2022-08-19T10:06:45;12.30;;;11.18;;
63218;SDS011;49320;52.512;13.448;2022-08-19T10:09:19;12.23;;;11.23;;
63218;SDS011;49320;52.512;13.448;2022-08-19T10:11:59;11.48;;;10.45;;
63218;SDS011;49320;52.512;13.448;2022-08-19T10:14:27;12.40;;;11.32;;
63218;SDS011;49320;52.512;13.448;2022-08-19T10:16:55;12.07;;;10.98;;
63218;SDS011;49320;52.512;13.448;2022-08-19T10:19:24;12.52;;;11.52;;
63218;SDS011;49320;52.512;13.448;2022-08-19T10:21:52;11.88;;;10.90;;
63218;SDS011;49320;52.512;13.448;2022-08-19T10:24:25;12.32;;;11.30;;
63218;SDS011;49320;52.512;13.448;2022-08-19T10:26:54;12.18;;;11.07;;
63218;SDS011;49320;52.512;13.448;2022-08-19T10:29:25;12.88;;;11.77;;
63218;SDS011;49320;52.512;13.448;2022-08-19T10:32:02;12.68;;;11.48;;
63218;SDS011;49320;52.512;13.448;2022-08-19T10:34:36;12.45;;;11.35;;
63218;SDS011;49320;52.512;13.448;2022-08-19T10:37:14;11.15;;;10.20;;
63218;SDS011;49320;52.512;13.448;2022-08-19T10:39:54;10.95;;;10.05;;
63218;SDS011;49320;52.512;13.448;2022-08-19T10:42:21;11.07;;;10.15;;
63218;SDS011;49320;52.512;13.448;2022-08-19T10:44:48;11.50;;;10.50;;
63218;SDS011;49320;52.512;13.448;2022-08-19T10:47:17;10.85;;;9.85;;
63218;SDS011;49320;52.512;13.448;2022-08-19T10:49:51;11.20;;;10.20;;
63218;SDS011;49320;52.512;13.448;2022-08-19T10:52:39;10.73;;;9.73;;
63218;SDS011;49320;52.512;13.448;2022-08-19T10:55:15;10.13;;;9.32;;
63218;SDS011;49320;52.512;13.448;2022-08-19T10:58:11;11.05;;;10.13;;
63218;SDS011;49320;52.512;13.448;2022-08-19T11:00:51;10.77;;;9.85;;
63218;SDS011;49320;52.512;13.448;2022-08-19T11:03:24;10.52;;;9.63;;
63218;SDS011;49320;52.512;13.448;2022-08-19T11:06:01;11.00;;;9.80;;
63218;SDS011;49320;52.512;13.448;2022-08-19T11:08:32;11.10;;;10.20;;
63218;SDS011;49320;52.512;13.448;2022-08-19T11:11:01;10.65;;;9.75;;
63218;SDS011;49320;52.512;13.448;2022-08-19T11:13:33;11.55;;;10.45;;
63218;SDS011;49320;52.512;13.448;2022-08-19T11:16:11;10.75;;;9.85;;
63218;SDS011;49320;52.512;13.448;2022-08-19T11:18:48;10.50;;;9.63;;
63218;SDS011;49320;52.512;13.448;2022-08-19T11:21:25;10.38;;;9.43;;
63218;SDS011;49320;52.512;13.448;2022-08-19T11:23:59;9.93;;;9.02;;
63218;SDS011;49320;52.512;13.448;2022-08-19T11:26:32;9.43;;;8.63;;
63218;SDS011;49320;52.512;13.448;2022-08-19T11:29:00;10.10;;;9.15;;
63218;SDS011;49320;52.512;13.448;2022-08-19T11:31:30;9.43;;;8.73;;
63218;SDS011;49320;52.512;13.448;2022-08-19T11:34:02;11.13;;;10.02;;
63218;SDS011;49320;52.512;13.448;2022-08-19T11:36:36;10.25;;;9.38;;
63218;SDS011;49320;52.512;13.448;2022-08-19T11:39:07;10.70;;;9.70;;
63218;SDS011;49320;52.512;13.448;2022-08-19T11:41:36;10.15;;;9.27;;
63218;SDS011;49320;52.512;13.448;2022-08-19T11:44:03;9.52;;;8.77;;
63218;SDS011;49320;52.512;13.448;2022-08-19T11:46:31;9.55;;;8.75;;
63218;SDS011;49320;52.512;13.448;2022-08-19T11:48:58;10.43;;;9.52;;
63218;SDS011;49320;52.512;13.448;2022-08-19T11:51:27;10.70;;;9.60;;
63218;SDS011;49320;52.512;13.448;2022-08-19T11:53:55;10.70;;;9.80;;
63218;SDS011;49320;52.512;13.448;2022-08-19T11:56:25;10.50;;;9.50;;
63218;SDS011;49320;52.512;13.448;2022-08-19T11:58:54;10.20;;;9.30;;
63218;SDS011;49320;52.512;13.448;2022-08-19T12:01:23;10.20;;;9.40;;
63218;SDS011;49320;52.512;13.448;2022-08-19T12:03:52;8.45;;;7.72;;
63218;SDS011;49320;52.512;13.448;2022-08-19T12:06:23;9.55;;;8.75;;
63218;SDS011;49320;52.512;13.448;2022-08-19T12:08:58;9.07;;;8.10;;
63218;SDS011;49320;52.512;13.448;2022-08-19T12:11:30;8.70;;;8.00;;
63218;SDS011;49320;52.512;13.448;2022-08-19T12:14:00;8.73;;;8.00;;
63218;SDS011;49320;52.512;13.448;2022-08-19T12:16:27;9.60;;;8.75;;
63218;SDS011;49320;52.512;13.448;2022-08-19T12:18:58;9.00;;;8.18;;
63218;SDS011;49320;52.512;13.448;2022-08-19T12:21:30;9.63;;;8.82;;
63218;SDS011;49320;52.512;13.448;2022-08-19T12:24:01;9.07;;;8.27;;
63218;SDS011;49320;52.512;13.448;2022-08-19T12:26:31;8.43;;;7.70;;
63218;SDS011;49320;52.512;13.448;2022-08-19T12:29:01;8.82;;;8.02;;
63218;SDS011;49320;52.512;13.448;2022-08-19T12:31:28;8.32;;;7.63;;
63218;SDS011;49320;52.512;13.448;2022-08-19T12:33:55;8.40;;;7.70;;
63218;SDS011;49320;52.512;13.448;2022-08-19T12:36:22;8.60;;;7.78;;
63218;SDS011;49320;52.512;13.448;2022-08-19T12:38:51;7.75;;;7.10;;
63218;SDS011;49320;52.512;13.448;2022-08-19T12:41:19;8.07;;;7.30;;
63218;SDS011;49320;52.512;13.448;2022-08-19T12:43:48;7.43;;;6.82;;
63218;SDS011;49320;52.512;13.448;2022-08-19T12:46:17;8.75;;;7.95;;
63218;SDS011;49320;52.512;13.448;2022-08-19T12:48:48;7.35;;;6.65;;
63218;SDS011;49320;52.512;13.448;2022-08-19T12:51:20;7.53;;;6.93;;
63218;SDS011;49320;52.512;13.448;2022-08-19T12:53:47;8.00;;;7.30;;
63218;SDS011;49320;52.512;13.448;2022-08-19T12:56:15;7.18;;;6.47;;
63218;SDS011;49320;52.512;13.448;2022-08-19T12:58:48;6.53;;;5.97;;
63218;SDS011;49320;52.512;13.448;2022-08-19T13:01:18;7.50;;;6.90;;
63218;SDS011;49320;52.512;13.448;2022-08-19T13:03:48;7.40;;;6.78;;
63218;SDS011;49320;52.512;13.448;2022-08-19T13:06:16;7.28;;;6.68;;
63218;SDS011;49320;52.512;13.448;2022-08-19T13:08:45;7.03;;;6.50;;
63218;SDS011;49320;52.512;13.448;2022-08-19T13:11:13;7.78;;;7.07;;
63218;SDS011;49320;52.512;13.448;2022-08-19T13:13:45;8.20;;;7.50;;
63218;SDS011;49320;52.512;13.448;2022-08-19T13:16:14;8.70;;;7.82;;
63218;SDS011;49320;52.512;13.448;2022-08-19T13:18:42;8.10;;;7.30;;
63218;SDS011;49320;52.512;13.448;2022-08-19T13:21:17;8.10;;;7.40;;
63218;SDS011;49320;52.512;13.448;2022-08-19T13:23:48;8.40;;;7.60;;
63218;SDS011;49320;52.512;13.448;2022-08-19T13:26:16;8.95;;;8.07;;
63218;SDS011;49320;52.512;13.448;2022-08-19T13:28:44;8.93;;;8.10;;
63218;SDS011;49320;52.512;13.448;2022-08-19T13:31:31;9.82;;;8.90;;
63218;SDS011;49320;52.512;13.448;2022-08-19T13:34:27;9.43;;;8.52;;
63218;SDS011;49320;52.512;13.448;2022-08-19T13:37:01;8.48;;;7.80;;
63218;SDS011;49320;52.512;13.448;2022-08-19T13:39:33;9.45;;;8.57;;
63218;SDS011;49320;52.512;13.448;2022-08-19T13:42:02;9.75;;;8.73;;
63218;SDS011;49320;52.512;13.448;2022-08-19T13:44:31;9.50;;;8.70;;
63218;SDS011;49320;52.512;13.448;2022-08-19T13:47:02;8.70;;;8.00;;
63218;SDS011;49320;52.512;13.448;2022-08-19T13:49:36;8.50;;;7.80;;
63218;SDS011;49320;52.512;13.448;2022-08-19T13:52:03;8.75;;;7.90;;
63218;SDS011;49320;52.512;13.448;2022-08-19T13:54:31;8.73;;;8.02;;
63218;SDS011;49320;52.512;13.448;2022-08-19T13:56:58;9.27;;;8.57;;
63218;SDS011;49320;52.512;13.448;2022-08-19T13:59:25;9.63;;;8.82;;
63218;SDS011;49320;52.512;13.448;2022-08-19T14:01:52;8.85;;;8.15;;
63218;SDS011;49320;52.512;13.448;2022-08-19T14:04:24;9.38;;;8.52;;
63218;SDS011;49320;52.512;13.448;2022-08-19T14:06:51;8.98;;;8.27;;
63218;SDS011;49320;52.512;13.448;2022-08-19T14:09:18;8.27;;;7.57;;
63218;SDS011;49320;52.512;13.448;2022-08-19T14:11:44;8.80;;;8.10;;
63218;SDS011;49320;52.512;13.448;2022-08-19T14:14:12;8.35;;;7.65;;
63218;SDS011;49320;52.512;13.448;2022-08-19T14:16:41;8.30;;;7.68;;
63218;SDS011;49320;52.512;13.448;2022-08-19T14:19:08;9.43;;;8.63;;
63218;SDS011;49320;52.512;13.448;2022-08-19T14:21:35;8.50;;;7.70;;
63218;SDS011;49320;52.512;13.448;2022-08-19T14:24:07;9.38;;;8.57;;
63218;SDS011;49320;52.512;13.448;2022-08-19T14:26:34;9.13;;;8.32;;
63218;SDS011;49320;52.512;13.448;2022-08-19T14:29:01;9.13;;;8.43;;
63218;SDS011;49320;52.512;13.448;2022-08-19T14:31:28;8.82;;;8.02;;
63218;SDS011;49320;52.512;13.448;2022-08-19T14:33:56;8.98;;;8.25;;
63218;SDS011;49320;52.512;13.448;2022-08-19T14:36:23;8.52;;;7.72;;
63218;SDS011;49320;52.512;13.448;2022-08-19T14:38:50;9.07;;;8.38;;
63218;SDS011;49320;52.512;13.448;2022-08-19T14:41:19;9.07;;;8.27;;
63218;SDS011;49320;52.512;13.448;2022-08-19T14:43:49;9.23;;;8.32;;
63218;SDS011;49320;52.512;13.448;2022-08-19T14:46:20;8.52;;;7.72;;
63218;SDS011;49320;52.512;13.448;2022-08-19T14:48:53;8.93;;;8.23;;
63218;SDS011;49320;52.512;13.448;2022-08-19T14:51:22;8.75;;;8.00;;
63218;SDS011;49320;52.512;13.448;2022-08-19T14:53:51;7.40;;;6.80;;
63218;SDS011;49320;52.512;13.448;2022-08-19T14:56:20;8.05;;;7.35;;
63218;SDS011;49320;52.512;13.448;2022-08-19T14:58:52;7.75;;;7.15;;
63218;SDS011;49320;52.512;13.448;2022-08-19T15:01:21;7.90;;;7.30;;
63218;SDS011;49320;52.512;13.448;2022-08-19T15:03:49;8.07;;;7.38;;
63218;SDS011;49320;52.512;13.448;2022-08-19T15:06:19;7.28;;;6.68;;
63218;SDS011;49320;52.512;13.448;2022-08-19T15:08:47;7.65;;;6.95;;
63218;SDS011;49320;52.512;13.448;2022-08-19T15:11:17;7.82;;;7.03;;
63218;SDS011;49320;52.512;13.448;2022-08-19T15:13:48;7.47;;;6.78;;
63218;SDS011;49320;52.512;13.448;2022-08-19T15:16:16;7.78;;;7.07;;
63218;SDS011;49320;52.512;13.448;2022-08-19T15:18:44;6.75;;;6.13;;
63218;SDS011;49320;52.512;13.448;2022-08-19T15:21:16;6.95;;;6.35;;
63218;SDS011;49320;52.512;13.448;2022-08-19T15:23:53;6.78;;;6.20;;
63218;SDS011;49320;52.512;13.448;2022-08-19T15:26:24;7.97;;;7.22;;
63218;SDS011;49320;52.512;13.448;2022-08-19T15:28:54;6.85;;;6.25;;
63218;SDS011;49320;52.512;13.448;2022-08-19T15:31:21;7.85;;;6.38;;
63218;SDS011;49320;52.512;13.448;2022-08-19T15:33:54;6.30;;;5.70;;
63218;SDS011;49320;52.512;13.448;2022-08-19T15:36:25;7.03;;;6.43;;
63218;SDS011;49320;52.512;13.448;2022-08-19T15:38:54;7.50;;;6.80;;
63218;SDS011;49320;52.512;13.448;2022-08-19T15:41:23;7.28;;;6.68;;
63218;SDS011;49320;52.512;13.448;2022-08-19T15:43:57;6.63;;;5.95;;
63218;SDS011;49320;52.512;13.448;2022-08-19T15:46:32;7.07;;;6.47;;
63218;SDS011;49320;52.512;13.448;2022-08-19T15:49:02;6.53;;;5.97;;
63218;SDS011;49320;52.512;13.448;2022-08-19T15:51:32;7.78;;;7.07;;
63218;SDS011;49320;52.512;13.448;2022-08-19T15:54:04;7.78;;;7.07;;
63218;SDS011;49320;52.512;13.448;2022-08-19T15:56:34;7.30;;;6.57;;
63218;SDS011;49320;52.512;13.448;2022-08-19T15:59:23;7.10;;;6.50;;
63218;SDS011;49320;52.512;13.448;2022-08-19T16:02:12;7.15;;;6.53;;
63218;SDS011;49320;52.512;13.448;2022-08-19T16:04:59;7.45;;;6.80;;
63218;SDS011;49320;52.512;13.448;2022-08-19T16:07:44;6.85;;;6.07;;
63218;SDS011;49320;52.512;13.448;2022-08-19T16:10:13;7.63;;;6.25;;
63218;SDS011;49320;52.512;13.448;2022-08-19T16:12:52;6.65;;;6.07;;
63218;SDS011;49320;52.512;13.448;2022-08-19T16:15:21;6.82;;;6.13;;
63218;SDS011;49320;52.512;13.448;2022-08-19T16:17:48;6.70;;;6.10;;
63218;SDS011;49320;52.512;13.448;2022-08-19T16:20:22;6.50;;;5.90;;
63218;SDS011;49320;52.512;13.448;2022-08-19T16:22:52;6.63;;;6.03;;
63218;SDS011;49320;52.512;13.448;2022-08-19T16:25:23;6.97;;;6.38;;
63218;SDS011;49320;52.512;13.448;2022-08-19T16:27:54;6.97;;;6.35;;
63218;SDS011;49320;52.512;13.448;2022-08-19T16:30:34;6.78;;;6.10;;
63218;SDS011;49320;52.512;13.448;2022-08-19T16:33:04;6.85;;;6.25;;
63218;SDS011;49320;52.512;13.448;2022-08-19T16:35:32;7.78;;;7.15;;
63218;SDS011;49320;52.512;13.448;2022-08-19T16:37:59;7.15;;;6.55;;
63218;SDS011;49320;52.512;13.448;2022-08-19T16:40:27;8.48;;;7.55;;
63218;SDS011;49320;52.512;13.448;2022-08-19T16:42:54;7.80;;;7.13;;
63218;SDS011;49320;52.512;13.448;2022-08-19T16:45:21;7.28;;;6.57;;
63218;SDS011;49320;52.512;13.448;2022-08-19T16:47:48;7.82;;;7.15;;
63218;SDS011;49320;52.512;13.448;2022-08-19T16:50:16;8.07;;;7.30;;
63218;SDS011;49320;52.512;13.448;2022-08-19T16:52:58;7.43;;;6.53;;
63218;SDS011;49320;52.512;13.448;2022-08-19T16:55:25;6.78;;;6.18;;
63218;SDS011;49320;52.512;13.448;2022-08-19T16:57:53;6.90;;;6.30;;
63218;SDS011;49320;52.512;13.448;2022-08-19T17:00:20;6.97;;;6.43;;
63218;SDS011;49320;52.512;13.448;2022-08-19T17:02:47;7.25;;;6.65;;
63218;SDS011;49320;52.512;13.448;2022-08-19T17:05:14;7.00;;;6.40;;
63218;SDS011;49320;52.512;13.448;2022-08-19T17:07:41;7.47;;;6.88;;
63218;SDS011;49320;52.512;13.448;2022-08-19T17:10:08;7.85;;;7.25;;
63218;SDS011;49320;52.512;13.448;2022-08-19T17:12:35;7.65;;;7.05;;
63218;SDS011;49320;52.512;13.448;2022-08-19T17:15:03;6.85;;;6.35;;
63218;SDS011;49320;52.512;13.448;2022-08-19T17:17:34;6.90;;;6.30;;
63218;SDS011;49320;52.512;13.448;2022-08-19T17:20:02;7.05;;;6.45;;
63218;SDS011;49320;52.512;13.448;2022-08-19T17:22:31;7.35;;;6.65;;
63218;SDS011;49320;52.512;13.448;2022-08-19T17:25:00;7.95;;;7.25;;
63218;SDS011;49320;52.512;13.448;2022-08-19T17:27:28;8.18;;;7.47;;
63218;SDS011;49320;52.512;13.448;2022-08-19T17:29:57;7.90;;;7.20;;
63218;SDS011;49320;52.512;13.448;2022-08-19T17:32:27;7.05;;;6.45;;
63218;SDS011;49320;52.512;13.448;2022-08-19T17:34:54;7.03;;;6.43;;
63218;SDS011;49320;52.512;13.448;2022-08-19T17:37:21;6.60;;;6.10;;
63218;SDS011;49320;52.512;13.448;2022-08-19T17:39:48;6.35;;;5.85;;
63218;SDS011;49320;52.512;13.448;2022-08-19T17:42:15;6.47;;;5.88;;
63218;SDS011;49320;52.512;13.448;2022-08-19T17:44:42;6.60;;;5.97;;
63218;SDS011;49320;52.512;13.448;2022-08-19T17:47:15;6.25;;;5.72;;
63218;SDS011;49320;52.512;13.448;2022-08-19T17:49:42;6.70;;;6.10;;
63218;SDS011;49320;52.512;13.448;2022-08-19T17:52:09;6.90;;;6.30;;
63218;SDS011;49320;52.512;13.448;2022-08-19T17:54:36;6.68;;;6.07;;
63218;SDS011;49320;52.512;13.448;2022-08-19T17:57:03;6.95;;;6.30;;
63218;SDS011;49320;52.512;13.448;2022-08-19T17:59:30;6.05;;;5.55;;
63218;SDS011;49320;52.512;13.448;2022-08-19T18:01:57;6.20;;;5.63;;
63218;SDS011;49320;52.512;13.448;2022-08-19T18:04:25;6.22;;;5.63;;
63218;SDS011;49320;52.512;13.448;2022-08-19T18:06:55;5.55;;;5.05;;
63218;SDS011;49320;52.512;13.448;2022-08-19T18:09:24;5.55;;;5.05;;
63218;SDS011;49320;52.512;13.448;2022-08-19T18:12:07;5.97;;;5.47;;
63218;SDS011;49320;52.512;13.448;2022-08-19T18:14:39;5.75;;;5.25;;
63218;SDS011;49320;52.512;13.448;2022-08-19T18:17:11;5.20;;;4.80;;
63218;SDS011;49320;52.512;13.448;2022-08-19T18:19:43;5.60;;;5.05;;
63218;SDS011;49320;52.512;13.448;2022-08-19T18:22:29;5.38;;;4.88;;
63218;SDS011;49320;52.512;13.448;2022-08-19T18:25:09;4.78;;;4.38;;
63218;SDS011;49320;52.512;13.448;2022-08-19T18:27:44;5.53;;;5.03;;
63218;SDS011;49320;52.512;13.448;2022-08-19T18:30:12;5.47;;;4.97;;
63218;SDS011;49320;52.512;13.448;2022-08-19T18:32:40;5.20;;;4.80;;
63218;SDS011;49320;52.512;13.448;2022-08-19T18:35:11;5.45;;;4.95;;
63218;SDS011;49320;52.512;13.448;2022-08-19T18:37:43;5.22;;;4.72;;
63218;SDS011;49320;52.512;13.448;2022-08-19T18:40:12;4.80;;;4.35;;
63218;SDS011;49320;52.512;13.448;2022-08-19T18:43:03;4.75;;;4.28;;
63218;SDS011;49320;52.512;13.448;2022-08-19T18:45:50;5.60;;;5.10;;
63218;SDS011;49320;52.512;13.448;2022-08-19T18:48:36;5.38;;;4.95;;
63218;SDS011;49320;52.512;13.448;2022-08-19T18:51:23;5.38;;;4.88;;
63218;SDS011;49320;52.512;13.448;2022-08-19T18:53:55;5.63;;;5.13;;
63218;SDS011;49320;52.512;13.448;2022-08-19T18:56:24;5.20;;;4.80;;
63218;SDS011;49320;52.512;13.448;2022-08-19T18:58:54;5.43;;;4.93;;
63218;SDS011;49320;52.512;13.448;2022-08-19T19:01:24;5.72;;;4.85;;
63218;SDS011;49320;52.512;13.448;2022-08-19T19:04:03;5.38;;;4.88;;
63218;SDS011;49320;52.512;13.448;2022-08-19T19:06:37;4.90;;;4.50;;
63218;SDS011;49320;52.512;13.448;2022-08-19T19:09:08;5.53;;;5.03;;
63218;SDS011;49320;52.512;13.448;2022-08-19T19:11:39;5.88;;;5.35;;
63218;SDS011;49320;52.512;13.448;2022-08-19T19:14:09;5.63;;;5.13;;
63218;SDS011;49320;52.512;13.448;2022-08-19T19:16:59;4.65;;;4.25;;
63218;SDS011;49320;52.512;13.448;2022-08-19T19:19:29;4.97;;;4.47;;
63218;SDS011;49320;52.512;13.448;2022-08-19T19:21:57;6.30;;;5.78;;
63218;SDS011;49320;52.512;13.448;2022-08-19T19:24:27;5.38;;;4.97;;
63218;SDS011;49320;52.512;13.448;2022-08-19T19:26:59;5.32;;;4.88;;
63218;SDS011;49320;52.512;13.448;2022-08-19T19:29:31;5.05;;;4.65;;
63218;SDS011;49320;52.512;13.448;2022-08-19T19:32:04;4.90;;;4.50;;
63218;SDS011;49320;52.512;13.448;2022-08-19T19:34:37;6.30;;;5.70;;
63218;SDS011;49320;52.512;13.448;2022-08-19T19:37:05;6.15;;;5.65;;
63218;SDS011;49320;52.512;13.448;2022-08-19T19:39:32;7.10;;;6.40;;
63218;SDS011;49320;52.512;13.448;2022-08-19T19:42:12;5.88;;;5.38;;
63218;SDS011;49320;52.512;13.448;2022-08-19T19:44:46;5.93;;;5.32;;
63218;SDS011;49320;52.512;13.448;2022-08-19T19:47:19;6.13;;;5.55;;
63218;SDS011;49320;52.512;13.448;2022-08-19T19:49:49;6.60;;;6.00;;
63218;SDS011;49320;52.512;13.448;2022-08-19T19:52:37;6.30;;;5.78;;
63218;SDS011;49320;52.512;13.448;2022-08-19T19:55:06;6.72;;;6.03;;
63218;SDS011;49320;52.512;13.448;2022-08-19T19:57:43;6.70;;;6.10;;
63218;SDS011;49320;52.512;13.448;2022-08-19T20:00:15;6.80;;;6.13;;
63218;SDS011;49320;52.512;13.448;2022-08-19T20:02:44;7.15;;;6.32;;
63218;SDS011;49320;52.512;13.448;2022-08-19T20:05:15;6.63;;;6.03;;
63218;SDS011;49320;52.512;13.448;2022-08-19T20:07:47;7.78;;;7.07;;
63218;SDS011;49320;52.512;13.448;2022-08-19T20:10:35;7.63;;;6.93;;
63218;SDS011;49320;52.512;13.448;2022-08-19T20:13:03;7.07;;;6.47;;
63218;SDS011;49320;52.512;13.448;2022-08-19T20:15:31;7.68;;;6.95;;
63218;SDS011;49320;52.512;13.448;2022-08-19T20:17:58;7.65;;;6.95;;
63218;SDS011;49320;52.512;13.448;2022-08-19T20:20:27;7.57;;;6.88;;
63218;SDS011;49320;52.512;13.448;2022-08-19T20:22:54;7.50;;;6.80;;
63218;SDS011;49320;52.512;13.448;2022-08-19T20:25:21;6.90;;;6.30;;
63218;SDS011;49320;52.512;13.448;2022-08-19T20:27:48;8.35;;;6.95;;